Altoona, Florida
Current Conditions -  °F | °C
As of 4:53 PM on Monday 26 Jan 2015 (Local Time) from KLEE Reporting Station
Clear Clear  
Wind Chill: 59°   Ceiling: Unl
Heat Index: 59°   Visibility: 10mi
Dew Point: 44°   Wind: 15mph
Humidity: 58%   Direction: 280°W
Pressure: 29.87"   Gusts: 23mph
Location:  28.97°N, 81.65°W
Report Text: KLEE 262153Z 28013G20KT 10SM CLR 15/07 A2987 RMK AO2 PK WND 28030/2102 SLP113 T01500067
Loading
Personal Weather Stations






























Interactive Weather Map New forecast layout! Learn more

10-Day Weather Forecast

Advertisements
Track Severe Weather on mobile